Main page
METAR-TAF:

METAR-TAF

Airports :

L'Mekrareg Airport

Laghouat, Algeria

latitude: 33-46N, longitude: 002-56E, elevation: 765 m

Current weather observation

The report was made 1 hour and 9 minutes ago, at 13:00 UTC
Wind 4 kt from the Southwest
Temperature 26°C
Humidity 17%
Pressure 1020 hPa
Visibility 10 km or more
no clouds below 1500 m and no cumulonimbus

METAR: DAUL 291300Z 22004KT CAVOK 26/M01 Q1020

Time: 15:09 (14:09 UTC)

Forecast

The report was made 3 hours and 9 minutes ago, at 11:00 UTC
Forecast valid from 29 at 12 UTC to 29 at 21 UTC
Wind 12 kt from the Southwest
Visibility 10 km or more
no clouds below 1500 m and no cumulonimbus

TAF: DAUL 291100Z 2912/2921 22012KT CAVOK

Weather observations and forecasts of more than 4000 airports (METAR and TAF reports).

The available stations are represented by yellow and red dots on the map.

Hover mouse over dot to see the name of the station.

Then click to see weather observations and forecasts.

To change the map : click on the green buttons with a black cross to zoom in, on the green button with a dash to zoom out, or on the green arrows for adjacent maps.


METAR-TAF: